sensor_id;sensor_type;location;lat;lon;timestamp;P1;durP1;ratioP1;P2;durP2;ratioP2
50056;SDS011;36875;49.468;11.200;2023-12-20T00:01:46;2.60;;;1.48;;
50056;SDS011;36875;49.468;11.200;2023-12-20T00:04:12;2.47;;;1.50;;
50056;SDS011;36875;49.468;11.200;2023-12-20T00:06:37;4.03;;;1.25;;
50056;SDS011;36875;49.468;11.200;2023-12-20T00:09:04;3.35;;;1.40;;
50056;SDS011;36875;49.468;11.200;2023-12-20T00:11:29;2.95;;;1.40;;
50056;SDS011;36875;49.468;11.200;2023-12-20T00:13:55;2.08;;;1.20;;
50056;SDS011;36875;49.468;11.200;2023-12-20T00:16:20;4.25;;;2.13;;
50056;SDS011;36875;49.468;11.200;2023-12-20T00:18:46;2.40;;;1.23;;
50056;SDS011;36875;49.468;11.200;2023-12-20T00:21:11;2.22;;;1.20;;
50056;SDS011;36875;49.468;11.200;2023-12-20T00:23:37;2.78;;;1.50;;
50056;SDS011;36875;49.468;11.200;2023-12-20T00:26:04;2.20;;;1.23;;
50056;SDS011;36875;49.468;11.200;2023-12-20T00:28:29;2.08;;;1.38;;
50056;SDS011;36875;49.468;11.200;2023-12-20T00:30:55;2.20;;;1.38;;
50056;SDS011;36875;49.468;11.200;2023-12-20T00:33:20;3.38;;;1.10;;
50056;SDS011;36875;49.468;11.200;2023-12-20T00:35:46;1.50;;;1.10;;
50056;SDS011;36875;49.468;11.200;2023-12-20T00:38:11;2.90;;;1.10;;
50056;SDS011;36875;49.468;11.200;2023-12-20T00:40:37;2.55;;;1.30;;
50056;SDS011;36875;49.468;11.200;2023-12-20T00:43:03;2.08;;;1.23;;
50056;SDS011;36875;49.468;11.200;2023-12-20T00:45:29;2.85;;;1.30;;
50056;SDS011;36875;49.468;11.200;2023-12-20T00:47:54;1.95;;;1.20;;
50056;SDS011;36875;49.468;11.200;2023-12-20T00:50:20;1.95;;;1.27;;
50056;SDS011;36875;49.468;11.200;2023-12-20T00:52:46;2.15;;;1.15;;
50056;SDS011;36875;49.468;11.200;2023-12-20T00:55:12;1.83;;;1.10;;
50056;SDS011;36875;49.468;11.200;2023-12-20T00:57:37;1.17;;;0.88;;
50056;SDS011;36875;49.468;11.200;2023-12-20T01:00:05;1.70;;;1.15;;
50056;SDS011;36875;49.468;11.200;2023-12-20T01:02:31;1.95;;;1.30;;
50056;SDS011;36875;49.468;11.200;2023-12-20T01:04:56;2.28;;;1.15;;
50056;SDS011;36875;49.468;11.200;2023-12-20T01:07:22;3.78;;;1.40;;
50056;SDS011;36875;49.468;11.200;2023-12-20T01:09:47;2.03;;;1.20;;
50056;SDS011;36875;49.468;11.200;2023-12-20T01:12:13;1.77;;;1.13;;
50056;SDS011;36875;49.468;11.200;2023-12-20T01:14:38;2.10;;;1.10;;
50056;SDS011;36875;49.468;11.200;2023-12-20T01:17:06;1.60;;;1.02;;
50056;SDS011;36875;49.468;11.200;2023-12-20T01:19:31;1.70;;;1.05;;
50056;SDS011;36875;49.468;11.200;2023-12-20T01:21:57;1.85;;;1.00;;
50056;SDS011;36875;49.468;11.200;2023-12-20T01:24:22;1.98;;;1.20;;
50056;SDS011;36875;49.468;11.200;2023-12-20T01:26:48;1.77;;;1.10;;
50056;SDS011;36875;49.468;11.200;2023-12-20T01:29:13;1.83;;;0.93;;
50056;SDS011;36875;49.468;11.200;2023-12-20T01:31:39;1.38;;;0.90;;
50056;SDS011;36875;49.468;11.200;2023-12-20T01:34:06;1.83;;;1.10;;
50056;SDS011;36875;49.468;11.200;2023-12-20T01:36:32;1.83;;;1.33;;
50056;SDS011;36875;49.468;11.200;2023-12-20T01:38:57;1.75;;;0.95;;
50056;SDS011;36875;49.468;11.200;2023-12-20T01:41:23;1.67;;;0.90;;
50056;SDS011;36875;49.468;11.200;2023-12-20T01:43:48;2.35;;;1.15;;
50056;SDS011;36875;49.468;11.200;2023-12-20T01:46:14;1.45;;;0.82;;
50056;SDS011;36875;49.468;11.200;2023-12-20T01:48:40;1.50;;;1.15;;
50056;SDS011;36875;49.468;11.200;2023-12-20T01:51:07;1.42;;;1.00;;
50056;SDS011;36875;49.468;11.200;2023-12-20T01:53:33;1.55;;;0.80;;
50056;SDS011;36875;49.468;11.200;2023-12-20T01:55:59;1.20;;;0.82;;
50056;SDS011;36875;49.468;11.200;2023-12-20T01:58:26;1.45;;;0.80;;
50056;SDS011;36875;49.468;11.200;2023-12-20T02:00:52;0.80;;;0.68;;
50056;SDS011;36875;49.468;11.200;2023-12-20T02:03:19;1.63;;;0.93;;
50056;SDS011;36875;49.468;11.200;2023-12-20T02:05:45;2.63;;;1.00;;
50056;SDS011;36875;49.468;11.200;2023-12-20T02:08:14;2.08;;;0.75;;
50056;SDS011;36875;49.468;11.200;2023-12-20T02:10:39;1.70;;;0.93;;
50056;SDS011;36875;49.468;11.200;2023-12-20T02:13:05;0.70;;;0.70;;
50056;SDS011;36875;49.468;11.200;2023-12-20T02:15:31;2.00;;;0.85;;
50056;SDS011;36875;49.468;11.200;2023-12-20T02:17:56;1.23;;;0.82;;
50056;SDS011;36875;49.468;11.200;2023-12-20T02:20:22;0.85;;;0.63;;
50056;SDS011;36875;49.468;11.200;2023-12-20T02:22:49;1.33;;;0.77;;
50056;SDS011;36875;49.468;11.200;2023-12-20T02:25:14;0.80;;;0.68;;
50056;SDS011;36875;49.468;11.200;2023-12-20T02:27:40;1.05;;;0.70;;
50056;SDS011;36875;49.468;11.200;2023-12-20T02:30:06;1.15;;;0.90;;
50056;SDS011;36875;49.468;11.200;2023-12-20T02:32:32;1.20;;;0.88;;
50056;SDS011;36875;49.468;11.200;2023-12-20T02:34:57;2.30;;;0.70;;
50056;SDS011;36875;49.468;11.200;2023-12-20T02:37:23;1.48;;;0.80;;
50056;SDS011;36875;49.468;11.200;2023-12-20T02:39:49;0.88;;;0.68;;
50056;SDS011;36875;49.468;11.200;2023-12-20T02:42:15;2.00;;;1.10;;
50056;SDS011;36875;49.468;11.200;2023-12-20T02:44:40;1.58;;;0.63;;
50056;SDS011;36875;49.468;11.200;2023-12-20T02:47:06;1.08;;;0.60;;
50056;SDS011;36875;49.468;11.200;2023-12-20T02:49:31;1.10;;;0.80;;
50056;SDS011;36875;49.468;11.200;2023-12-20T02:51:57;1.08;;;0.68;;
50056;SDS011;36875;49.468;11.200;2023-12-20T02:54:22;1.42;;;0.77;;
50056;SDS011;36875;49.468;11.200;2023-12-20T02:56:49;0.65;;;0.57;;
50056;SDS011;36875;49.468;11.200;2023-12-20T02:59:15;1.75;;;0.70;;
50056;SDS011;36875;49.468;11.200;2023-12-20T03:01:41;1.08;;;0.68;;
50056;SDS011;36875;49.468;11.200;2023-12-20T03:04:07;0.70;;;0.50;;
50056;SDS011;36875;49.468;11.200;2023-12-20T03:06:33;1.05;;;0.68;;
50056;SDS011;36875;49.468;11.200;2023-12-20T03:08:58;1.73;;;0.70;;
50056;SDS011;36875;49.468;11.200;2023-12-20T03:11:26;0.80;;;0.50;;
50056;SDS011;36875;49.468;11.200;2023-12-20T03:13:53;1.27;;;0.73;;
50056;SDS011;36875;49.468;11.200;2023-12-20T03:16:18;1.23;;;0.70;;
50056;SDS011;36875;49.468;11.200;2023-12-20T03:18:44;0.90;;;0.55;;
50056;SDS011;36875;49.468;11.200;2023-12-20T03:21:09;2.05;;;0.73;;
50056;SDS011;36875;49.468;11.200;2023-12-20T03:23:35;1.00;;;0.60;;
50056;SDS011;36875;49.468;11.200;2023-12-20T03:26:00;1.13;;;0.73;;
50056;SDS011;36875;49.468;11.200;2023-12-20T03:28:26;1.05;;;0.70;;
50056;SDS011;36875;49.468;11.200;2023-12-20T03:30:54;0.82;;;0.60;;
50056;SDS011;36875;49.468;11.200;2023-12-20T03:33:21;1.05;;;0.70;;
50056;SDS011;36875;49.468;11.200;2023-12-20T03:35:47;1.02;;;0.60;;
50056;SDS011;36875;49.468;11.200;2023-12-20T03:38:12;0.80;;;0.60;;
50056;SDS011;36875;49.468;11.200;2023-12-20T03:40:38;0.80;;;0.52;;
50056;SDS011;36875;49.468;11.200;2023-12-20T03:43:03;0.82;;;0.57;;
50056;SDS011;36875;49.468;11.200;2023-12-20T03:45:29;1.30;;;0.70;;
50056;SDS011;36875;49.468;11.200;2023-12-20T03:47:55;1.30;;;0.80;;
50056;SDS011;36875;49.468;11.200;2023-12-20T03:50:21;0.85;;;0.55;;
50056;SDS011;36875;49.468;11.200;2023-12-20T03:52:47;0.57;;;0.55;;
50056;SDS011;36875;49.468;11.200;2023-12-20T03:55:13;1.15;;;0.60;;
50056;SDS011;36875;49.468;11.200;2023-12-20T03:57:38;0.50;;;0.45;;
50056;SDS011;36875;49.468;11.200;2023-12-20T04:00:04;0.50;;;0.30;;
50056;SDS011;36875;49.468;11.200;2023-12-20T04:02:35;0.73;;;0.57;;
50056;SDS011;36875;49.468;11.200;2023-12-20T04:05:02;0.57;;;0.40;;
50056;SDS011;36875;49.468;11.200;2023-12-20T04:07:27;0.90;;;0.60;;
50056;SDS011;36875;49.468;11.200;2023-12-20T04:09:53;0.50;;;0.40;;
50056;SDS011;36875;49.468;11.200;2023-12-20T04:12:18;0.75;;;0.50;;
50056;SDS011;36875;49.468;11.200;2023-12-20T04:14:44;0.95;;;0.60;;
50056;SDS011;36875;49.468;11.200;2023-12-20T04:17:09;0.60;;;0.50;;
50056;SDS011;36875;49.468;11.200;2023-12-20T04:19:35;0.57;;;0.45;;
50056;SDS011;36875;49.468;11.200;2023-12-20T04:22:04;0.60;;;0.40;;
50056;SDS011;36875;49.468;11.200;2023-12-20T04:24:29;0.55;;;0.55;;
50056;SDS011;36875;49.468;11.200;2023-12-20T04:26:55;0.95;;;0.47;;
50056;SDS011;36875;49.468;11.200;2023-12-20T04:29:20;0.50;;;0.47;;
50056;SDS011;36875;49.468;11.200;2023-12-20T04:31:46;0.98;;;0.50;;
50056;SDS011;36875;49.468;11.200;2023-12-20T04:34:11;0.50;;;0.43;;
50056;SDS011;36875;49.468;11.200;2023-12-20T04:36:37;0.82;;;0.40;;
50056;SDS011;36875;49.468;11.200;2023-12-20T04:39:03;0.60;;;0.50;;
50056;SDS011;36875;49.468;11.200;2023-12-20T04:41:29;0.52;;;0.50;;
50056;SDS011;36875;49.468;11.200;2023-12-20T04:43:55;0.57;;;0.57;;
50056;SDS011;36875;49.468;11.200;2023-12-20T04:46:20;0.57;;;0.50;;
50056;SDS011;36875;49.468;11.200;2023-12-20T04:48:46;0.40;;;0.40;;
50056;SDS011;36875;49.468;11.200;2023-12-20T04:51:11;0.35;;;0.35;;
50056;SDS011;36875;49.468;11.200;2023-12-20T04:53:37;0.75;;;0.57;;
50056;SDS011;36875;49.468;11.200;2023-12-20T04:56:04;0.30;;;0.30;;
50056;SDS011;36875;49.468;11.200;2023-12-20T04:58:30;0.80;;;0.40;;
50056;SDS011;36875;49.468;11.200;2023-12-20T05:00:55;0.73;;;0.52;;
50056;SDS011;36875;49.468;11.200;2023-12-20T05:03:20;0.65;;;0.30;;
50056;SDS011;36875;49.468;11.200;2023-12-20T05:05:46;0.82;;;0.40;;
50056;SDS011;36875;49.468;11.200;2023-12-20T05:08:11;0.65;;;0.32;;
50056;SDS011;36875;49.468;11.200;2023-12-20T05:10:37;0.35;;;0.30;;
50056;SDS011;36875;49.468;11.200;2023-12-20T05:13:04;0.32;;;0.32;;
50056;SDS011;36875;49.468;11.200;2023-12-20T05:15:29;0.47;;;0.40;;
50056;SDS011;36875;49.468;11.200;2023-12-20T05:17:55;1.30;;;0.50;;
50056;SDS011;36875;49.468;11.200;2023-12-20T05:20:20;1.08;;;0.55;;
50056;SDS011;36875;49.468;11.200;2023-12-20T05:22:46;0.25;;;0.25;;
50056;SDS011;36875;49.468;11.200;2023-12-20T05:25:12;0.75;;;0.60;;
50056;SDS011;36875;49.468;11.200;2023-12-20T05:27:37;0.40;;;0.40;;
50056;SDS011;36875;49.468;11.200;2023-12-20T05:30:05;0.60;;;0.47;;
50056;SDS011;36875;49.468;11.200;2023-12-20T05:32:31;0.35;;;0.35;;
50056;SDS011;36875;49.468;11.200;2023-12-20T05:34:57;0.30;;;0.30;;
50056;SDS011;36875;49.468;11.200;2023-12-20T05:37:22;0.35;;;0.35;;
50056;SDS011;36875;49.468;11.200;2023-12-20T05:39:47;0.20;;;0.20;;
50056;SDS011;36875;49.468;11.200;2023-12-20T05:42:13;0.40;;;0.40;;
50056;SDS011;36875;49.468;11.200;2023-12-20T05:44:38;0.65;;;0.38;;
50056;SDS011;36875;49.468;11.200;2023-12-20T05:47:05;1.23;;;0.30;;
50056;SDS011;36875;49.468;11.200;2023-12-20T05:49:31;0.52;;;0.40;;
50056;SDS011;36875;49.468;11.200;2023-12-20T05:51:56;0.73;;;0.40;;
50056;SDS011;36875;49.468;11.200;2023-12-20T05:54:22;1.00;;;0.50;;
50056;SDS011;36875;49.468;11.200;2023-12-20T05:56:48;0.55;;;0.30;;
50056;SDS011;36875;49.468;11.200;2023-12-20T05:59:13;0.25;;;0.22;;
50056;SDS011;36875;49.468;11.200;2023-12-20T06:01:39;0.73;;;0.30;;
50056;SDS011;36875;49.468;11.200;2023-12-20T06:04:06;1.48;;;0.50;;
50056;SDS011;36875;49.468;11.200;2023-12-20T06:06:31;0.90;;;0.47;;
50056;SDS011;36875;49.468;11.200;2023-12-20T06:08:57;2.63;;;0.50;;
50056;SDS011;36875;49.468;11.200;2023-12-20T06:11:22;1.73;;;0.52;;
50056;SDS011;36875;49.468;11.200;2023-12-20T06:13:48;4.38;;;1.05;;
50056;SDS011;36875;49.468;11.200;2023-12-20T06:16:17;4.03;;;0.85;;
50056;SDS011;36875;49.468;11.200;2023-12-20T06:18:43;4.88;;;0.77;;
50056;SDS011;36875;49.468;11.200;2023-12-20T06:21:10;6.28;;;0.75;;
50056;SDS011;36875;49.468;11.200;2023-12-20T06:23:37;4.15;;;0.75;;
50056;SDS011;36875;49.468;11.200;2023-12-20T06:26:03;3.90;;;0.80;;
50056;SDS011;36875;49.468;11.200;2023-12-20T06:28:28;10.25;;;1.83;;
50056;SDS011;36875;49.468;11.200;2023-12-20T06:30:54;9.48;;;1.30;;
50056;SDS011;36875;49.468;11.200;2023-12-20T06:33:20;13.98;;;1.85;;
50056;SDS011;36875;49.468;11.200;2023-12-20T06:35:47;9.23;;;1.42;;
50056;SDS011;36875;49.468;11.200;2023-12-20T06:38:14;10.15;;;1.23;;
50056;SDS011;36875;49.468;11.200;2023-12-20T06:40:39;11.52;;;1.30;;
50056;SDS011;36875;49.468;11.200;2023-12-20T06:43:05;10.23;;;1.17;;
50056;SDS011;36875;49.468;11.200;2023-12-20T06:45:31;7.25;;;1.17;;
50056;SDS011;36875;49.468;11.200;2023-12-20T06:47:57;12.73;;;1.42;;
50056;SDS011;36875;49.468;11.200;2023-12-20T06:50:23;6.68;;;1.23;;
50056;SDS011;36875;49.468;11.200;2023-12-20T06:52:48;9.77;;;1.20;;
50056;SDS011;36875;49.468;11.200;2023-12-20T06:55:15;5.65;;;1.05;;
50056;SDS011;36875;49.468;11.200;2023-12-20T06:57:42;5.90;;;1.20;;
50056;SDS011;36875;49.468;11.200;2023-12-20T07:00:08;11.65;;;1.50;;
50056;SDS011;36875;49.468;11.200;2023-12-20T07:02:36;8.35;;;0.95;;
50056;SDS011;36875;49.468;11.200;2023-12-20T07:05:01;12.15;;;1.73;;
50056;SDS011;36875;49.468;11.200;2023-12-20T07:07:26;9.15;;;1.05;;
50056;SDS011;36875;49.468;11.200;2023-12-20T07:09:52;10.73;;;1.27;;
50056;SDS011;36875;49.468;11.200;2023-12-20T07:12:19;8.30;;;1.15;;
50056;SDS011;36875;49.468;11.200;2023-12-20T07:14:44;7.55;;;1.38;;
50056;SDS011;36875;49.468;11.200;2023-12-20T07:17:10;10.15;;;1.30;;
50056;SDS011;36875;49.468;11.200;2023-12-20T07:19:36;7.80;;;1.13;;
50056;SDS011;36875;49.468;11.200;2023-12-20T07:22:02;7.38;;;1.42;;
50056;SDS011;36875;49.468;11.200;2023-12-20T07:24:28;6.07;;;1.10;;
50056;SDS011;36875;49.468;11.200;2023-12-20T07:26:54;7.88;;;1.10;;
50056;SDS011;36875;49.468;11.200;2023-12-20T07:29:21;3.90;;;1.00;;
50056;SDS011;36875;49.468;11.200;2023-12-20T07:31:46;8.43;;;1.25;;
50056;SDS011;36875;49.468;11.200;2023-12-20T07:34:12;7.13;;;1.10;;
50056;SDS011;36875;49.468;11.200;2023-12-20T07:36:37;3.47;;;0.80;;
50056;SDS011;36875;49.468;11.200;2023-12-20T07:39:03;8.25;;;1.00;;
50056;SDS011;36875;49.468;11.200;2023-12-20T07:41:29;5.40;;;1.10;;
50056;SDS011;36875;49.468;11.200;2023-12-20T07:43:55;4.75;;;1.08;;
50056;SDS011;36875;49.468;11.200;2023-12-20T07:46:23;7.18;;;1.20;;
50056;SDS011;36875;49.468;11.200;2023-12-20T07:48:48;5.18;;;1.00;;
50056;SDS011;36875;49.468;11.200;2023-12-20T07:51:14;7.18;;;1.08;;
50056;SDS011;36875;49.468;11.200;2023-12-20T07:53:39;5.88;;;1.20;;
50056;SDS011;36875;49.468;11.200;2023-12-20T07:56:13;5.53;;;0.75;;
50056;SDS011;36875;49.468;11.200;2023-12-20T07:58:39;2.55;;;0.80;;
50056;SDS011;36875;49.468;11.200;2023-12-20T08:01:04;7.13;;;1.27;;
50056;SDS011;36875;49.468;11.200;2023-12-20T08:03:31;14.75;;;1.35;;
50056;SDS011;36875;49.468;11.200;2023-12-20T08:05:57;5.05;;;0.93;;
50056;SDS011;36875;49.468;11.200;2023-12-20T08:08:24;4.05;;;0.80;;
50056;SDS011;36875;49.468;11.200;2023-12-20T08:10:50;6.13;;;0.93;;
50056;SDS011;36875;49.468;11.200;2023-12-20T08:13:15;2.45;;;0.82;;
50056;SDS011;36875;49.468;11.200;2023-12-20T08:15:41;3.50;;;0.60;;
50056;SDS011;36875;49.468;11.200;2023-12-20T08:18:07;3.15;;;0.85;;
50056;SDS011;36875;49.468;11.200;2023-12-20T08:20:34;5.28;;;0.90;;
50056;SDS011;36875;49.468;11.200;2023-12-20T08:22:59;4.63;;;0.70;;
50056;SDS011;36875;49.468;11.200;2023-12-20T08:25:25;2.88;;;0.70;;
50056;SDS011;36875;49.468;11.200;2023-12-20T08:27:51;3.47;;;0.70;;
50056;SDS011;36875;49.468;11.200;2023-12-20T08:30:16;3.15;;;0.57;;
50056;SDS011;36875;49.468;11.200;2023-12-20T08:32:45;5.38;;;1.20;;
50056;SDS011;36875;49.468;11.200;2023-12-20T08:35:11;2.75;;;0.90;;
50056;SDS011;36875;49.468;11.200;2023-12-20T08:37:38;1.58;;;0.50;;
50056;SDS011;36875;49.468;11.200;2023-12-20T08:40:04;2.40;;;0.82;;
50056;SDS011;36875;49.468;11.200;2023-12-20T08:42:30;2.13;;;0.60;;
50056;SDS011;36875;49.468;11.200;2023-12-20T08:44:56;4.43;;;0.60;;
50056;SDS011;36875;49.468;11.200;2023-12-20T08:47:22;4.15;;;0.75;;
50056;SDS011;36875;49.468;11.200;2023-12-20T08:49:48;2.20;;;0.77;;
50056;SDS011;36875;49.468;11.200;2023-12-20T08:52:13;5.75;;;0.70;;
50056;SDS011;36875;49.468;11.200;2023-12-20T08:54:40;2.05;;;0.80;;
50056;SDS011;36875;49.468;11.200;2023-12-20T08:57:06;1.67;;;0.60;;
50056;SDS011;36875;49.468;11.200;2023-12-20T08:59:32;4.93;;;0.70;;
50056;SDS011;36875;49.468;11.200;2023-12-20T09:01:57;4.47;;;0.85;;
50056;SDS011;36875;49.468;11.200;2023-12-20T09:04:23;4.18;;;0.88;;
50056;SDS011;36875;49.468;11.200;2023-12-20T09:06:48;2.50;;;0.60;;
50056;SDS011;36875;49.468;11.200;2023-12-20T09:09:14;3.50;;;0.80;;
50056;SDS011;36875;49.468;11.200;2023-12-20T09:11:41;1.55;;;0.80;;
50056;SDS011;36875;49.468;11.200;2023-12-20T09:14:07;3.70;;;0.55;;
50056;SDS011;36875;49.468;11.200;2023-12-20T09:16:32;1.77;;;0.52;;
50056;SDS011;36875;49.468;11.200;2023-12-20T09:18:58;2.70;;;0.88;;
50056;SDS011;36875;49.468;11.200;2023-12-20T09:21:23;2.25;;;0.70;;
50056;SDS011;36875;49.468;11.200;2023-12-20T09:23:49;1.63;;;0.65;;
50056;SDS011;36875;49.468;11.200;2023-12-20T09:26:14;3.38;;;0.90;;
50056;SDS011;36875;49.468;11.200;2023-12-20T09:28:41;4.43;;;0.90;;
50056;SDS011;36875;49.468;11.200;2023-12-20T09:31:07;3.97;;;0.93;;
50056;SDS011;36875;49.468;11.200;2023-12-20T09:33:32;3.47;;;1.05;;
50056;SDS011;36875;49.468;11.200;2023-12-20T09:35:58;4.35;;;1.02;;
50056;SDS011;36875;49.468;11.200;2023-12-20T09:38:24;6.63;;;1.60;;
50056;SDS011;36875;49.468;11.200;2023-12-20T09:40:50;4.82;;;1.15;;
50056;SDS011;36875;49.468;11.200;2023-12-20T09:43:15;8.75;;;2.13;;
50056;SDS011;36875;49.468;11.200;2023-12-20T09:45:49;7.22;;;1.42;;
50056;SDS011;36875;49.468;11.200;2023-12-20T09:50:44;6.47;;;1.70;;
50056;SDS011;36875;49.468;11.200;2023-12-20T09:53:11;5.78;;;1.85;;
50056;SDS011;36875;49.468;11.200;2023-12-20T09:55:39;8.00;;;2.05;;
50056;SDS011;36875;49.468;11.200;2023-12-20T09:58:06;9.73;;;1.63;;
50056;SDS011;36875;49.468;11.200;2023-12-20T10:00:33;8.18;;;2.28;;
50056;SDS011;36875;49.468;11.200;2023-12-20T10:03:00;8.90;;;1.75;;
50056;SDS011;36875;49.468;11.200;2023-12-20T10:05:27;8.32;;;2.03;;
50056;SDS011;36875;49.468;11.200;2023-12-20T10:07:53;6.50;;;1.63;;
50056;SDS011;36875;49.468;11.200;2023-12-20T10:10:19;7.63;;;1.60;;
50056;SDS011;36875;49.468;11.200;2023-12-20T10:12:46;9.70;;;2.20;;
50056;SDS011;36875;49.468;11.200;2023-12-20T10:15:26;7.18;;;1.90;;
50056;SDS011;36875;49.468;11.200;2023-12-20T10:17:52;10.07;;;2.65;;
50056;SDS011;36875;49.468;11.200;2023-12-20T10:20:19;7.10;;;2.03;;
50056;SDS011;36875;49.468;11.200;2023-12-20T10:22:44;6.60;;;1.73;;
50056;SDS011;36875;49.468;11.200;2023-12-20T10:25:11;6.38;;;1.77;;
50056;SDS011;36875;49.468;11.200;2023-12-20T10:27:37;6.82;;;1.88;;
50056;SDS011;36875;49.468;11.200;2023-12-20T10:30:02;9.50;;;1.40;;
50056;SDS011;36875;49.468;11.200;2023-12-20T10:32:29;6.43;;;1.50;;
50056;SDS011;36875;49.468;11.200;2023-12-20T10:34:56;7.03;;;1.77;;
50056;SDS011;36875;49.468;11.200;2023-12-20T10:37:25;8.10;;;1.42;;
50056;SDS011;36875;49.468;11.200;2023-12-20T10:39:51;6.65;;;1.58;;
50056;SDS011;36875;49.468;11.200;2023-12-20T10:42:21;9.70;;;1.75;;
50056;SDS011;36875;49.468;11.200;2023-12-20T10:44:47;4.50;;;1.50;;
50056;SDS011;36875;49.468;11.200;2023-12-20T10:47:14;5.55;;;1.52;;
50056;SDS011;36875;49.468;11.200;2023-12-20T10:49:40;7.57;;;1.95;;
50056;SDS011;36875;49.468;11.200;2023-12-20T10:52:07;7.88;;;1.63;;
50056;SDS011;36875;49.468;11.200;2023-12-20T10:54:35;6.40;;;1.77;;
50056;SDS011;36875;49.468;11.200;2023-12-20T10:57:01;6.50;;;1.80;;
50056;SDS011;36875;49.468;11.200;2023-12-20T10:59:30;5.50;;;1.67;;
50056;SDS011;36875;49.468;11.200;2023-12-20T11:01:58;12.20;;;2.00;;
50056;SDS011;36875;49.468;11.200;2023-12-20T11:04:31;8.68;;;1.90;;
50056;SDS011;36875;49.468;11.200;2023-12-20T11:07:05;7.55;;;1.90;;
50056;SDS011;36875;49.468;11.200;2023-12-20T11:09:41;13.48;;;2.25;;
50056;SDS011;36875;49.468;11.200;2023-12-20T11:12:13;9.15;;;1.50;;
50056;SDS011;36875;49.468;11.200;2023-12-20T11:14:42;6.90;;;1.70;;
50056;SDS011;36875;49.468;11.200;2023-12-20T11:17:12;6.00;;;1.42;;
50056;SDS011;36875;49.468;11.200;2023-12-20T11:19:43;9.15;;;2.17;;
50056;SDS011;36875;49.468;11.200;2023-12-20T11:22:29;6.57;;;1.42;;
50056;SDS011;36875;49.468;11.200;2023-12-20T11:24:59;9.85;;;2.10;;
50056;SDS011;36875;49.468;11.200;2023-12-20T11:27:29;9.45;;;1.70;;
50056;SDS011;36875;49.468;11.200;2023-12-20T11:29:56;5.53;;;1.48;;
50056;SDS011;36875;49.468;11.200;2023-12-20T11:32:27;6.53;;;1.40;;
50056;SDS011;36875;49.468;11.200;2023-12-20T11:34:54;5.30;;;1.30;;
50056;SDS011;36875;49.468;11.200;2023-12-20T11:37:20;7.07;;;1.48;;
50056;SDS011;36875;49.468;11.200;2023-12-20T11:39:51;4.97;;;1.20;;
50056;SDS011;36875;49.468;11.200;2023-12-20T11:42:21;7.13;;;1.55;;
50056;SDS011;36875;49.468;11.200;2023-12-20T11:44:46;5.47;;;1.75;;
50056;SDS011;36875;49.468;11.200;2023-12-20T11:47:12;7.82;;;1.25;;
50056;SDS011;36875;49.468;11.200;2023-12-20T11:49:39;7.05;;;1.60;;
50056;SDS011;36875;49.468;11.200;2023-12-20T11:52:05;4.22;;;1.15;;
50056;SDS011;36875;49.468;11.200;2023-12-20T11:54:31;6.53;;;1.38;;
50056;SDS011;36875;49.468;11.200;2023-12-20T11:56:56;4.55;;;1.52;;
50056;SDS011;36875;49.468;11.200;2023-12-20T11:59:23;3.22;;;1.15;;
50056;SDS011;36875;49.468;11.200;2023-12-20T12:01:49;5.20;;;1.23;;
50056;SDS011;36875;49.468;11.200;2023-12-20T12:04:15;4.72;;;1.27;;
50056;SDS011;36875;49.468;11.200;2023-12-20T12:06:42;7.55;;;1.40;;
50056;SDS011;36875;49.468;11.200;2023-12-20T12:09:08;4.90;;;1.38;;
50056;SDS011;36875;49.468;11.200;2023-12-20T12:11:33;4.95;;;1.40;;
50056;SDS011;36875;49.468;11.200;2023-12-20T12:14:01;4.60;;;1.10;;
50056;SDS011;36875;49.468;11.200;2023-12-20T12:16:28;3.85;;;1.10;;
50056;SDS011;36875;49.468;11.200;2023-12-20T12:18:55;3.42;;;1.00;;
50056;SDS011;36875;49.468;11.200;2023-12-20T12:21:21;4.53;;;1.23;;
50056;SDS011;36875;49.468;11.200;2023-12-20T12:23:46;2.90;;;0.82;;
50056;SDS011;36875;49.468;11.200;2023-12-20T12:26:12;3.40;;;1.13;;
50056;SDS011;36875;49.468;11.200;2023-12-20T12:28:39;5.93;;;1.13;;
50056;SDS011;36875;49.468;11.200;2023-12-20T12:31:05;5.07;;;1.20;;
50056;SDS011;36875;49.468;11.200;2023-12-20T12:33:32;4.70;;;1.23;;
50056;SDS011;36875;49.468;11.200;2023-12-20T12:35:57;2.95;;;1.08;;
50056;SDS011;36875;49.468;11.200;2023-12-20T12:38:24;4.68;;;1.25;;
50056;SDS011;36875;49.468;11.200;2023-12-20T12:40:50;4.95;;;1.17;;
50056;SDS011;36875;49.468;11.200;2023-12-20T12:43:18;3.47;;;0.90;;
50056;SDS011;36875;49.468;11.200;2023-12-20T12:45:43;3.33;;;1.00;;
50056;SDS011;36875;49.468;11.200;2023-12-20T12:48:09;4.28;;;0.80;;
50056;SDS011;36875;49.468;11.200;2023-12-20T12:50:36;4.15;;;1.15;;
50056;SDS011;36875;49.468;11.200;2023-12-20T12:53:02;3.72;;;1.08;;
50056;SDS011;36875;49.468;11.200;2023-12-20T12:55:27;3.17;;;1.00;;
50056;SDS011;36875;49.468;11.200;2023-12-20T12:57:53;3.60;;;0.90;;
50056;SDS011;36875;49.468;11.200;2023-12-20T13:00:19;3.60;;;1.02;;
50056;SDS011;36875;49.468;11.200;2023-12-20T13:02:44;4.20;;;1.10;;
50056;SDS011;36875;49.468;11.200;2023-12-20T13:05:10;2.97;;;1.30;;
50056;SDS011;36875;49.468;11.200;2023-12-20T13:07:37;3.40;;;1.17;;
50056;SDS011;36875;49.468;11.200;2023-12-20T13:10:04;2.58;;;0.80;;
50056;SDS011;36875;49.468;11.200;2023-12-20T13:12:31;4.72;;;0.90;;
50056;SDS011;36875;49.468;11.200;2023-12-20T13:14:57;4.15;;;0.98;;
50056;SDS011;36875;49.468;11.200;2023-12-20T13:17:22;3.17;;;0.80;;
50056;SDS011;36875;49.468;11.200;2023-12-20T13:19:48;3.60;;;0.70;;
50056;SDS011;36875;49.468;11.200;2023-12-20T13:22:14;3.55;;;0.93;;
50056;SDS011;36875;49.468;11.200;2023-12-20T13:24:41;2.65;;;0.85;;
50056;SDS011;36875;49.468;11.200;2023-12-20T13:27:09;2.00;;;0.88;;
50056;SDS011;36875;49.468;11.200;2023-12-20T13:29:35;3.08;;;0.90;;
50056;SDS011;36875;49.468;11.200;2023-12-20T13:32:00;4.70;;;0.88;;
50056;SDS011;36875;49.468;11.200;2023-12-20T13:34:26;1.48;;;0.60;;
50056;SDS011;36875;49.468;11.200;2023-12-20T13:36:51;2.67;;;0.70;;
50056;SDS011;36875;49.468;11.200;2023-12-20T13:39:17;1.77;;;0.68;;
50056;SDS011;36875;49.468;11.200;2023-12-20T13:41:44;3.58;;;0.95;;
50056;SDS011;36875;49.468;11.200;2023-12-20T13:44:10;4.43;;;0.95;;
50056;SDS011;36875;49.468;11.200;2023-12-20T13:46:36;6.20;;;1.02;;
50056;SDS011;36875;49.468;11.200;2023-12-20T13:49:02;3.67;;;1.05;;
50056;SDS011;36875;49.468;11.200;2023-12-20T13:51:28;2.25;;;1.00;;
50056;SDS011;36875;49.468;11.200;2023-12-20T13:53:53;2.38;;;0.70;;
50056;SDS011;36875;49.468;11.200;2023-12-20T13:56:19;1.35;;;0.60;;
50056;SDS011;36875;49.468;11.200;2023-12-20T13:58:46;1.92;;;0.60;;
50056;SDS011;36875;49.468;11.200;2023-12-20T14:01:12;2.55;;;0.85;;
50056;SDS011;36875;49.468;11.200;2023-12-20T14:03:37;2.75;;;0.90;;
50056;SDS011;36875;49.468;11.200;2023-12-20T14:06:03;1.52;;;0.73;;
50056;SDS011;36875;49.468;11.200;2023-12-20T14:08:29;4.32;;;1.10;;
50056;SDS011;36875;49.468;11.200;2023-12-20T14:10:54;2.90;;;1.20;;
50056;SDS011;36875;49.468;11.200;2023-12-20T14:13:20;2.95;;;1.10;;
50056;SDS011;36875;49.468;11.200;2023-12-20T14:15:47;3.80;;;0.98;;
50056;SDS011;36875;49.468;11.200;2023-12-20T14:18:14;2.08;;;0.93;;
50056;SDS011;36875;49.468;11.200;2023-12-20T14:20:40;5.18;;;1.05;;
50056;SDS011;36875;49.468;11.200;2023-12-20T14:23:08;2.00;;;1.10;;
50056;SDS011;36875;49.468;11.200;2023-12-20T14:25:37;2.25;;;0.80;;
50056;SDS011;36875;49.468;11.200;2023-12-20T14:28:02;4.78;;;1.10;;
50056;SDS011;36875;49.468;11.200;2023-12-20T14:30:28;2.25;;;1.00;;